Pagrindinis puslapis
METAR-TAF:

METAR-TAF

Oro uostai :

Krasnodaras, Rusija

platuma: 45-02N, ilguma: 039-09E, Aukštis: 33 m

Dabartinis oras

Ataskaita buvo paskelbta 20 minutes, ne 08:00 UTC
Vėjas 6 kt iš Vakarų
Temperatūra 19°C
Drėgmė 73%
Slėgis 1018 hPa
Matomumas 10 km arba daugiau
nėra debesų žemiau 1500 m ir nėra kamuolinių lietaus debesų

METAR: URKK 180800Z 27003MPS CAVOK 19/14 Q1018 R23L/CLRD70 NOSIG RMK QFE760

Laikas: 11:20 (08:20 UTC)

Prognozė

Ataskaita buvo paskelbta 3 valandos ir 29 minutes, ne 04:51 UTC
Prognozė galioja nuo 18 metu 06 UTC su 19 metu 06 UTC
Vėjas 6 kt iš Pietvakarių su gūsio iki 16 kt
Matomumas 10 km arba daugiau
Išsisklaidę debesys ne aukštis 3000 ft
Laikinai
nuo 18 metu 06 UTC su 18 metu 09 UTC
Matomumas: 3100 m
Su prošvaistėmis ne aukštis 1100 ft
rūkana

TAF: URKK 180451Z 1806/1906 22003G08MPS 9999 SCT030 TEMPO 1806/1809 3100 BR BKN011

Orai ataskaitas ir orų prognozės (METAR, TAF).

turimą stotys yra geltonos ir raudonos taškus žemėlapyje.

Perkelti pele per norėdami pamatyti stoties vardą.

Tada spustelėkite, norėdami matyti oro stebėjimo ir prognozės.

Norėdami pakeisti žemėlapį: spustelėkite ant žalios mygtukų su juodo kryžiaus žemyn,; žalią mygtuką su brūkšneliu, jei norite nutolinti; arba žalių rodyklių gretimoms žemėlapius.


METAR-TAF: